EZR674 TNCA-TNCB
Flight info
| Callsign | EZR674 |
|---|---|
| Flight time | 0h 35m |
| Altitude | 11000 |
| Route | ADRIV1F ADRIV A574 PJG DCT IMOMA |
| Aircraft | SF34/M-SDFGR/S |
Departure
| Time | 2026-05-03 20:41 |
|---|---|
| Airport | Queen Beatrix International Airport (TNCA) |
Arrival
| Time | 2026-05-03 21:16 |
|---|---|
| Airport | Flamingo International Airport (TNCB) |
| Time | Latitude | Longitude | Altitude | Speed | Heading |
|---|---|---|---|---|---|
| 2026-05-03 20:15 | 12.50396 | -70.01180 | 37 ft | 0 kts | 11° |
| 2026-05-03 20:28 | 12.50387 | -70.01181 | 37 ft | 4 kts | 12° |
| 2026-05-03 20:29 | 12.50361 | -70.01184 | 37 ft | 4 kts | 347° |
| 2026-05-03 20:29 | 12.50340 | -70.01175 | 37 ft | 1 kts | 327° |
| 2026-05-03 20:29 | 12.50336 | -70.01173 | 37 ft | 0 kts | 327° |
| 2026-05-03 20:31 | 12.50337 | -70.01173 | 37 ft | 0 kts | 327° |
| 2026-05-03 20:31 | 12.50337 | -70.01180 | 37 ft | 3 kts | 244° |
| 2026-05-03 20:31 | 12.50330 | -70.01194 | 37 ft | 0 kts | 285° |
| 2026-05-03 20:33 | 12.50340 | -70.01236 | 36 ft | 14 kts | 285° |
| 2026-05-03 20:34 | 12.50340 | -70.01365 | 34 ft | 20 kts | 255° |
| 2026-05-03 20:34 | 12.50319 | -70.01528 | 31 ft | 28 kts | 280° |
| 2026-05-03 20:34 | 12.50373 | -70.01753 | 27 ft | 38 kts | 283° |
| 2026-05-03 20:34 | 12.50429 | -70.01977 | 25 ft | 23 kts | 283° |
| 2026-05-03 20:35 | 12.50466 | -70.02150 | 19 ft | 22 kts | 284° |
| 2026-05-03 20:35 | 12.50505 | -70.02311 | 16 ft | 25 kts | 286° |
| 2026-05-03 20:35 | 12.50543 | -70.02466 | 13 ft | 19 kts | 277° |
| 2026-05-03 20:35 | 12.50571 | -70.02578 | 11 ft | 15 kts | 290° |
| 2026-05-03 20:36 | 12.50564 | -70.02674 | 10 ft | 13 kts | 234° |
| 2026-05-03 20:36 | 12.50516 | -70.02718 | 10 ft | 0 kts | 202° |
| 2026-05-03 20:36 | 12.50513 | -70.02719 | 10 ft | 2 kts | 198° |
| 2026-05-03 20:37 | 12.50459 | -70.02726 | 10 ft | 15 kts | 185° |
| 2026-05-03 20:37 | 12.50423 | -70.02712 | 10 ft | 0 kts | 104° |
| 2026-05-03 20:40 | 12.50420 | -70.02704 | 10 ft | 0 kts | 105° |
| 2026-05-03 20:40 | 12.50397 | -70.02609 | 11 ft | 38 kts | 103° |
| 2026-05-03 20:40 | 12.50284 | -70.02150 | 21 ft | 92 kts | 106° |
| 2026-05-03 20:41 | 12.50102 | -70.01384 | 155 ft | 125 kts | 108° |
| 2026-05-03 20:41 | 12.49898 | -70.00500 | 539 ft | 135 kts | 109° |
| 2026-05-03 20:41 | 12.49628 | -69.99468 | 811 ft | 157 kts | 109° |
| 2026-05-03 20:41 | 12.49360 | -69.98422 | 1527 ft | 151 kts | 106° |
| 2026-05-03 20:42 | 12.49105 | -69.97391 | 2144 ft | 150 kts | 108° |
| 2026-05-03 20:42 | 12.48854 | -69.96324 | 2575 ft | 161 kts | 107° |
| 2026-05-03 20:42 | 12.48605 | -69.95190 | 3160 ft | 162 kts | 107° |
| 2026-05-03 20:42 | 12.48354 | -69.94083 | 3719 ft | 161 kts | 108° |
| 2026-05-03 20:43 | 12.48084 | -69.92967 | 4245 ft | 164 kts | 109° |
| 2026-05-03 20:43 | 12.47806 | -69.91797 | 4738 ft | 167 kts | 110° |
| 2026-05-03 20:43 | 12.47522 | -69.90613 | 5139 ft | 174 kts | 110° |
| 2026-05-03 20:43 | 12.47236 | -69.89415 | 5648 ft | 175 kts | 110° |
| 2026-05-03 20:44 | 12.46942 | -69.88185 | 6054 ft | 182 kts | 109° |
| 2026-05-03 20:44 | 12.46646 | -69.86943 | 6526 ft | 182 kts | 109° |
| 2026-05-03 20:44 | 12.46371 | -69.85684 | 7044 ft | 180 kts | 108° |
| 2026-05-03 20:44 | 12.46060 | -69.84451 | 7542 ft | 179 kts | 111° |
| 2026-05-03 20:45 | 12.45743 | -69.83192 | 7911 ft | 187 kts | 109° |
| 2026-05-03 20:45 | 12.45446 | -69.81913 | 8473 ft | 181 kts | 110° |
| 2026-05-03 20:45 | 12.45092 | -69.80671 | 8922 ft | 186 kts | 112° |
| 2026-05-03 20:45 | 12.44743 | -69.79420 | 9455 ft | 184 kts | 111° |
| 2026-05-03 20:46 | 12.44400 | -69.78161 | 9918 ft | 185 kts | 111° |
| 2026-05-03 20:46 | 12.44047 | -69.76885 | 10350 ft | 185 kts | 111° |
| 2026-05-03 20:46 | 12.43694 | -69.75600 | 10723 ft | 191 kts | 112° |
| 2026-05-03 20:46 | 12.43311 | -69.74243 | 10876 ft | 207 kts | 111° |
| 2026-05-03 20:47 | 12.42906 | -69.72781 | 10917 ft | 219 kts | 111° |
| 2026-05-03 20:47 | 12.42490 | -69.71268 | 10931 ft | 223 kts | 111° |
| 2026-05-03 20:47 | 12.42064 | -69.69723 | 10930 ft | 228 kts | 111° |
| 2026-05-03 20:47 | 12.41630 | -69.68156 | 10925 ft | 231 kts | 111° |
| 2026-05-03 20:48 | 12.41194 | -69.66569 | 10928 ft | 233 kts | 111° |
| 2026-05-03 20:48 | 12.40752 | -69.64973 | 10925 ft | 233 kts | 111° |
| 2026-05-03 20:48 | 12.40311 | -69.63374 | 10927 ft | 233 kts | 111° |
| 2026-05-03 20:48 | 12.39872 | -69.61786 | 10923 ft | 232 kts | 112° |
| 2026-05-03 20:49 | 12.39433 | -69.60192 | 10926 ft | 233 kts | 112° |
| 2026-05-03 20:49 | 12.38893 | -69.58626 | 10932 ft | 235 kts | 116° |
| 2026-05-03 20:49 | 12.38353 | -69.57046 | 10923 ft | 235 kts | 114° |
| 2026-05-03 20:49 | 12.37835 | -69.55468 | 10925 ft | 235 kts | 114° |
| 2026-05-03 20:50 | 12.37303 | -69.53897 | 10920 ft | 234 kts | 115° |
| 2026-05-03 20:50 | 12.36772 | -69.52329 | 10923 ft | 233 kts | 115° |
| 2026-05-03 20:50 | 12.36248 | -69.50759 | 10923 ft | 234 kts | 115° |
| 2026-05-03 20:50 | 12.35714 | -69.49185 | 10926 ft | 235 kts | 115° |
| 2026-05-03 20:51 | 12.35180 | -69.47600 | 10928 ft | 235 kts | 115° |
| 2026-05-03 20:51 | 12.34646 | -69.46019 | 10926 ft | 235 kts | 115° |
| 2026-05-03 20:51 | 12.34123 | -69.44466 | 10926 ft | 233 kts | 115° |
| 2026-05-03 20:51 | 12.33596 | -69.42900 | 10928 ft | 234 kts | 115° |
| 2026-05-03 20:52 | 12.33064 | -69.41328 | 10924 ft | 234 kts | 115° |
| 2026-05-03 20:52 | 12.32503 | -69.39762 | 10927 ft | 235 kts | 117° |
| 2026-05-03 20:52 | 12.31933 | -69.38196 | 10917 ft | 235 kts | 114° |
| 2026-05-03 20:52 | 12.31445 | -69.36599 | 10932 ft | 235 kts | 113° |
| 2026-05-03 20:53 | 12.30946 | -69.35015 | 10931 ft | 233 kts | 114° |
| 2026-05-03 20:53 | 12.30424 | -69.33442 | 10931 ft | 234 kts | 115° |
| 2026-05-03 20:53 | 12.29893 | -69.31867 | 10926 ft | 235 kts | 114° |
| 2026-05-03 20:53 | 12.29371 | -69.30282 | 10931 ft | 236 kts | 114° |
| 2026-05-03 20:54 | 12.29014 | -69.29210 | 10928 ft | 235 kts | 115° |
| 2026-05-03 20:54 | 12.27964 | -69.26053 | 10929 ft | 234 kts | 114° |
| 2026-05-03 20:54 | 12.27442 | -69.24481 | 10933 ft | 234 kts | 114° |
| 2026-05-03 20:55 | 12.26918 | -69.22905 | 10933 ft | 234 kts | 115° |
| 2026-05-03 20:55 | 12.26391 | -69.21321 | 10933 ft | 236 kts | 114° |
| 2026-05-03 20:55 | 12.25862 | -69.19734 | 10932 ft | 235 kts | 114° |
| 2026-05-03 20:55 | 12.25334 | -69.18148 | 10933 ft | 234 kts | 115° |
| 2026-05-03 20:56 | 12.24813 | -69.16578 | 10931 ft | 234 kts | 115° |
| 2026-05-03 20:56 | 12.24289 | -69.15001 | 10933 ft | 234 kts | 115° |
| 2026-05-03 20:56 | 12.23769 | -69.13447 | 10929 ft | 235 kts | 115° |
| 2026-05-03 20:56 | 12.23245 | -69.11867 | 10932 ft | 235 kts | 115° |
| 2026-05-03 20:57 | 12.22717 | -69.10288 | 10928 ft | 235 kts | 115° |
| 2026-05-03 20:57 | 12.22192 | -69.08710 | 10930 ft | 234 kts | 115° |
| 2026-05-03 20:57 | 12.21680 | -69.07182 | 10327 ft | 232 kts | 115° |
| 2026-05-03 20:57 | 12.21154 | -69.05599 | 9913 ft | 234 kts | 115° |
| 2026-05-03 20:58 | 12.20637 | -69.04043 | 9411 ft | 234 kts | 115° |
| 2026-05-03 20:58 | 12.20106 | -69.02464 | 8792 ft | 234 kts | 115° |
| 2026-05-03 20:58 | 12.19606 | -69.00933 | 8628 ft | 223 kts | 112° |
| 2026-05-03 20:58 | 12.19382 | -68.99367 | 8372 ft | 224 kts | 100° |
| 2026-05-03 20:59 | 12.19278 | -68.97722 | 8247 ft | 239 kts | 102° |
| 2026-05-03 20:59 | 12.19107 | -68.96015 | 8109 ft | 242 kts | 103° |
| 2026-05-03 20:59 | 12.18928 | -68.94309 | 7968 ft | 240 kts | 103° |
| 2026-05-03 20:59 | 12.18738 | -68.92613 | 7827 ft | 239 kts | 103° |
| 2026-05-03 21:00 | 12.18551 | -68.90935 | 7679 ft | 238 kts | 103° |
| 2026-05-03 21:00 | 12.18431 | -68.89821 | 7579 ft | 237 kts | 103° |
| 2026-05-03 21:00 | 12.18181 | -68.87571 | 7386 ft | 239 kts | 103° |
| 2026-05-03 21:00 | 12.17995 | -68.85890 | 7237 ft | 237 kts | 103° |
| 2026-05-03 21:01 | 12.17802 | -68.84224 | 7105 ft | 234 kts | 104° |
| 2026-05-03 21:01 | 12.17604 | -68.82579 | 6949 ft | 232 kts | 108° |
| 2026-05-03 21:01 | 12.17397 | -68.80939 | 6775 ft | 236 kts | 96° |
| 2026-05-03 21:01 | 12.17347 | -68.79242 | 6664 ft | 240 kts | 92° |
| 2026-05-03 21:02 | 12.17186 | -68.77531 | 6550 ft | 243 kts | 98° |
| 2026-05-03 21:02 | 12.16927 | -68.75839 | 6441 ft | 244 kts | 99° |
| 2026-05-03 21:02 | 12.16693 | -68.74091 | 6330 ft | 253 kts | 96° |
| 2026-05-03 21:02 | 12.16522 | -68.72285 | 6217 ft | 257 kts | 96° |
| 2026-05-03 21:03 | 12.16317 | -68.70482 | 6101 ft | 242 kts | 98° |
| 2026-05-03 21:03 | 12.16137 | -68.68944 | 5969 ft | 202 kts | 97° |
| 2026-05-03 21:03 | 12.15994 | -68.67626 | 5810 ft | 171 kts | 98° |
| 2026-05-03 21:03 | 12.15863 | -68.66446 | 5657 ft | 164 kts | 97° |
| 2026-05-03 21:04 | 12.15731 | -68.65253 | 5510 ft | 168 kts | 99° |
| 2026-05-03 21:04 | 12.15600 | -68.64110 | 5360 ft | 159 kts | 99° |
| 2026-05-03 21:04 | 12.15480 | -68.63004 | 5212 ft | 154 kts | 99° |
| 2026-05-03 21:04 | 12.15333 | -68.61923 | 5070 ft | 154 kts | 101° |
| 2026-05-03 21:05 | 12.15200 | -68.60908 | 4923 ft | 143 kts | 96° |
| 2026-05-03 21:05 | 12.15119 | -68.59920 | 4726 ft | 136 kts | 98° |
| 2026-05-03 21:05 | 12.15029 | -68.58972 | 4388 ft | 132 kts | 99° |
| 2026-05-03 21:05 | 12.14920 | -68.58024 | 3785 ft | 139 kts | 98° |
| 2026-05-03 21:06 | 12.14811 | -68.57032 | 3411 ft | 136 kts | 97° |
| 2026-05-03 21:06 | 12.14712 | -68.56115 | 3108 ft | 126 kts | 97° |
| 2026-05-03 21:06 | 12.14609 | -68.55216 | 2593 ft | 129 kts | 95° |
| 2026-05-03 21:06 | 12.14507 | -68.54272 | 2230 ft | 144 kts | 95° |
| 2026-05-03 21:07 | 12.14396 | -68.53245 | 2452 ft | 140 kts | 97° |
| 2026-05-03 21:07 | 12.14277 | -68.52271 | 2523 ft | 138 kts | 96° |
| 2026-05-03 21:07 | 12.14170 | -68.51287 | 2524 ft | 140 kts | 96° |
| 2026-05-03 21:07 | 12.14059 | -68.50286 | 2518 ft | 143 kts | 96° |
| 2026-05-03 21:08 | 12.13946 | -68.49292 | 2508 ft | 132 kts | 96° |
| 2026-05-03 21:08 | 12.13848 | -68.48388 | 2510 ft | 125 kts | 95° |
| 2026-05-03 21:08 | 12.13751 | -68.47517 | 2513 ft | 122 kts | 96° |
| 2026-05-03 21:08 | 12.13642 | -68.46665 | 2508 ft | 119 kts | 94° |
| 2026-05-03 21:09 | 12.13999 | -68.45937 | 2521 ft | 129 kts | 37° |
| 2026-05-03 21:09 | 12.14946 | -68.45921 | 2515 ft | 153 kts | 340° |
| 2026-05-03 21:09 | 12.15648 | -68.46773 | 2513 ft | 167 kts | 286° |
| 2026-05-03 21:09 | 12.15512 | -68.47910 | 2513 ft | 162 kts | 231° |
| 2026-05-03 21:10 | 12.14680 | -68.48493 | 2513 ft | 136 kts | 174° |
| 2026-05-03 21:10 | 12.13939 | -68.48160 | 2517 ft | 112 kts | 114° |
| 2026-05-03 21:10 | 12.13798 | -68.47409 | 2508 ft | 108 kts | 96° |
| 2026-05-03 21:10 | 12.13710 | -68.46633 | 2510 ft | 112 kts | 93° |
| 2026-05-03 21:11 | 12.13652 | -68.45825 | 2511 ft | 116 kts | 93° |
| 2026-05-03 21:11 | 12.13621 | -68.44972 | 2511 ft | 124 kts | 92° |
| 2026-05-03 21:11 | 12.13596 | -68.44089 | 2513 ft | 128 kts | 91° |
| 2026-05-03 21:11 | 12.13569 | -68.43174 | 2510 ft | 126 kts | 92° |
| 2026-05-03 21:12 | 12.13545 | -68.42313 | 2508 ft | 118 kts | 92° |
| 2026-05-03 21:12 | 12.13509 | -68.41501 | 2494 ft | 111 kts | 93° |
| 2026-05-03 21:12 | 12.13448 | -68.40717 | 2412 ft | 112 kts | 91° |
| 2026-05-03 21:12 | 12.13408 | -68.39897 | 2276 ft | 118 kts | 91° |
| 2026-05-03 21:13 | 12.13348 | -68.39059 | 2125 ft | 116 kts | 91° |
| 2026-05-03 21:13 | 12.13303 | -68.38278 | 1910 ft | 103 kts | 89° |
| 2026-05-03 21:13 | 12.13287 | -68.37555 | 1551 ft | 111 kts | 90° |
| 2026-05-03 21:13 | 12.13296 | -68.36727 | 1503 ft | 123 kts | 88° |
| 2026-05-03 21:14 | 12.13298 | -68.35815 | 1457 ft | 132 kts | 90° |
| 2026-05-03 21:14 | 12.13290 | -68.34862 | 1323 ft | 135 kts | 89° |
| 2026-05-03 21:14 | 12.13273 | -68.33932 | 1105 ft | 122 kts | 89° |
| 2026-05-03 21:14 | 12.13251 | -68.33066 | 964 ft | 121 kts | 91° |
| 2026-05-03 21:15 | 12.13245 | -68.32211 | 830 ft | 118 kts | 90° |
| 2026-05-03 21:15 | 12.13247 | -68.31401 | 642 ft | 118 kts | 93° |
| 2026-05-03 21:15 | 12.13221 | -68.30535 | 602 ft | 120 kts | 93° |
| 2026-05-03 21:15 | 12.13187 | -68.29725 | 431 ft | 112 kts | 94° |
| 2026-05-03 21:16 | 12.13159 | -68.28956 | 263 ft | 99 kts | 95° |
| 2026-05-03 21:16 | 12.13124 | -68.28268 | 114 ft | 97 kts | 89° |
| 2026-05-03 21:16 | 12.13105 | -68.27634 | 26 ft | 77 kts | 91° |
| 2026-05-03 21:16 | 12.13093 | -68.27213 | 18 ft | 36 kts | 90° |
| 2026-05-03 21:17 | 12.13090 | -68.26938 | 16 ft | 50 kts | 93° |
| 2026-05-03 21:17 | 12.13089 | -68.26800 | 16 ft | 9 kts | 150° |
| 2026-05-03 21:17 | 12.13090 | -68.27013 | 16 ft | 33 kts | 273° |
| 2026-05-03 21:17 | 12.13094 | -68.27285 | 17 ft | 41 kts | 270° |
| 2026-05-03 21:18 | 12.13108 | -68.27532 | 18 ft | 32 kts | 276° |
| 2026-05-03 21:18 | 12.13186 | -68.27610 | 18 ft | 13 kts | 345° |
| 2026-05-03 21:18 | 12.13236 | -68.27651 | 18 ft | 10 kts | 354° |
| 2026-05-03 21:18 | 12.13275 | -68.27668 | 19 ft | 6 kts | 222° |
| 2026-05-03 21:19 | 12.13266 | -68.27670 | 19 ft | 0 kts | 175° |